createdAt,value
2022-09-30T00:01:03.894Z,4.23
2022-09-30T00:03:31.562Z,3.93
2022-09-30T00:05:59.241Z,4.07
2022-09-30T00:08:26.813Z,4.53
2022-09-30T00:11:01.777Z,4.17
2022-09-30T00:13:29.248Z,4.43
2022-09-30T00:15:56.760Z,4.47
2022-09-30T00:18:25.589Z,3.93
2022-09-30T00:20:54.061Z,4.40
2022-09-30T00:23:21.760Z,4.20
2022-09-30T00:25:49.294Z,4.33
2022-09-30T00:28:16.774Z,4.20
2022-09-30T00:30:44.244Z,5.07
2022-09-30T00:33:11.691Z,5.37
2022-09-30T00:35:40.571Z,4.93
2022-09-30T00:38:08.069Z,5.00
2022-09-30T00:40:35.580Z,4.53
2022-09-30T00:43:03.047Z,4.03
2022-09-30T00:45:31.529Z,5.03
2022-09-30T00:48:04.856Z,4.30
2022-09-30T00:50:36.722Z,4.00
2022-09-30T00:53:11.382Z,4.40
2022-09-30T00:55:52.751Z,5.57
2022-09-30T00:58:26.284Z,4.23
2022-09-30T01:00:53.820Z,4.20
2022-09-30T01:03:23.125Z,4.30
2022-09-30T01:05:52.028Z,3.57
2022-09-30T01:08:21.986Z,4.70
2022-09-30T01:10:49.437Z,4.90
2022-09-30T01:13:19.143Z,6.07
2022-09-30T01:15:59.809Z,5.40
2022-09-30T01:18:31.905Z,5.27
2022-09-30T01:21:50.273Z,5.33
2022-09-30T01:24:30.547Z,4.83
2022-09-30T01:27:20.534Z,4.60
2022-09-30T01:30:10.787Z,5.27
2022-09-30T01:33:00.876Z,5.07
2022-09-30T01:35:37.547Z,5.53
2022-09-30T01:38:13.240Z,5.10
2022-09-30T01:40:44.819Z,4.90
2022-09-30T01:43:14.931Z,5.00
2022-09-30T01:45:44.433Z,5.10
2022-09-30T01:48:19.780Z,5.10
2022-09-30T01:50:50.769Z,4.90
2022-09-30T01:53:24.764Z,4.70
2022-09-30T01:55:54.962Z,4.50
2022-09-30T01:58:28.795Z,6.20
2022-09-30T02:00:59.459Z,5.40
2022-09-30T02:03:31.142Z,5.00
2022-09-30T02:06:03.216Z,5.30
2022-09-30T02:08:34.341Z,4.53
2022-09-30T02:11:06.066Z,4.30
2022-09-30T02:13:35.908Z,5.47
2022-09-30T02:16:12.716Z,5.50
2022-09-30T02:18:44.740Z,4.80
2022-09-30T02:21:13.595Z,4.23
2022-09-30T02:23:43.775Z,4.17
2022-09-30T02:26:14.517Z,4.80
2022-09-30T02:28:43.476Z,4.17
2022-09-30T02:31:12.799Z,4.40
2022-09-30T02:33:44.986Z,5.40
2022-09-30T02:36:17.408Z,5.00
2022-09-30T02:38:46.274Z,5.40
2022-09-30T02:41:16.368Z,5.57
2022-09-30T02:43:43.935Z,4.40
2022-09-30T02:46:16.234Z,5.10
2022-09-30T02:48:48.568Z,5.50
2022-09-30T02:51:19.219Z,5.53
2022-09-30T02:53:52.560Z,5.90
2022-09-30T02:56:25.834Z,4.60
2022-09-30T02:58:53.973Z,5.70
2022-09-30T03:01:21.561Z,5.57
2022-09-30T03:03:51.746Z,5.60
2022-09-30T03:06:19.473Z,5.27
2022-09-30T03:08:47.189Z,5.40
2022-09-30T03:11:16.621Z,5.30
2022-09-30T03:14:20.447Z,6.37
2022-09-30T03:17:19.577Z,5.30
2022-09-30T03:20:04.438Z,4.93
2022-09-30T03:22:47.054Z,4.97
2022-09-30T03:25:22.393Z,6.03
2022-09-30T03:27:57.045Z,5.50
2022-09-30T03:30:26.917Z,6.50
2022-09-30T03:33:04.567Z,6.20
2022-09-30T03:35:41.405Z,5.63
2022-09-30T03:38:13.733Z,5.50
2022-09-30T03:40:44.761Z,6.10
2022-09-30T03:43:20.014Z,7.07
2022-09-30T03:45:52.200Z,5.43
2022-09-30T03:48:20.432Z,5.13
2022-09-30T03:50:49.371Z,5.50
2022-09-30T03:53:17.167Z,5.50
2022-09-30T03:55:47.682Z,5.67
2022-09-30T03:58:15.624Z,6.30
2022-09-30T04:00:48.532Z,5.30
2022-09-30T04:03:16.586Z,6.30
2022-09-30T04:05:44.429Z,5.40
2022-09-30T04:08:13.272Z,6.50
2022-09-30T04:10:41.999Z,5.80
2022-09-30T04:13:09.849Z,7.00
2022-09-30T04:15:37.717Z,7.40
2022-09-30T04:18:06.061Z,6.10
2022-09-30T04:20:33.799Z,5.93
2022-09-30T04:23:01.828Z,6.33
2022-09-30T04:25:30.838Z,6.63
2022-09-30T04:27:58.560Z,5.80
2022-09-30T04:30:30.144Z,5.80
2022-09-30T04:33:00.290Z,5.80
2022-09-30T04:35:30.049Z,5.73
2022-09-30T04:37:57.607Z,7.03
2022-09-30T04:40:25.369Z,6.00
2022-09-30T04:42:58.175Z,6.33
2022-09-30T04:45:25.928Z,5.27
2022-09-30T04:47:53.492Z,5.70
2022-09-30T04:50:21.178Z,6.00
2022-09-30T04:52:48.849Z,6.73
2022-09-30T04:55:16.497Z,6.47
2022-09-30T04:57:45.317Z,5.90
2022-09-30T05:00:14.467Z,6.37
2022-09-30T05:02:44.103Z,6.37
2022-09-30T05:05:11.767Z,6.00
2022-09-30T05:07:39.266Z,6.77
2022-09-30T05:10:08.427Z,6.60
2022-09-30T05:12:36.489Z,5.80
2022-09-30T05:15:04.630Z,6.50
2022-09-30T05:17:33.669Z,6.13
2022-09-30T05:20:01.823Z,6.53
2022-09-30T05:22:29.355Z,5.60
2022-09-30T05:24:57.055Z,5.67
2022-09-30T05:27:25.304Z,6.00
2022-09-30T05:29:52.814Z,5.77
2022-09-30T05:32:21.266Z,6.00
2022-09-30T05:34:50.302Z,6.97
2022-09-30T05:37:17.790Z,6.13
2022-09-30T05:39:45.353Z,5.97
2022-09-30T05:42:14.139Z,6.20
2022-09-30T05:44:41.795Z,6.20
2022-09-30T05:47:11.507Z,5.90
2022-09-30T05:49:40.142Z,7.47
2022-09-30T05:52:09.013Z,7.33
2022-09-30T05:54:36.516Z,7.67
2022-09-30T05:57:05.265Z,7.40
2022-09-30T05:59:32.781Z,7.10
2022-09-30T06:02:00.435Z,8.53
2022-09-30T06:04:27.989Z,8.77
2022-09-30T06:06:55.717Z,7.43
2022-09-30T06:09:24.921Z,9.30
2022-09-30T06:11:53.018Z,7.00
2022-09-30T06:14:22.530Z,8.67
2022-09-30T06:16:50.159Z,8.50
2022-09-30T06:19:17.823Z,8.27
2022-09-30T06:21:45.467Z,8.13
2022-09-30T06:24:14.671Z,8.30
2022-09-30T06:27:11.934Z,9.17
2022-09-30T06:29:39.668Z,8.87
2022-09-30T06:32:07.659Z,9.00
2022-09-30T06:34:35.276Z,9.43
2022-09-30T06:37:02.753Z,8.40
2022-09-30T06:39:30.250Z,8.20
2022-09-30T06:41:59.081Z,8.87
2022-09-30T06:44:26.618Z,8.60
2022-09-30T06:46:54.565Z,8.63
2022-09-30T06:49:22.386Z,8.00
2022-09-30T06:51:51.467Z,9.00
2022-09-30T06:54:21.011Z,9.90
2022-09-30T06:56:48.786Z,9.13
2022-09-30T06:59:17.814Z,9.10
2022-09-30T07:01:46.278Z,8.60
2022-09-30T07:04:13.993Z,9.43
2022-09-30T07:06:41.797Z,9.67
2022-09-30T07:09:10.704Z,8.27
2022-09-30T07:11:38.439Z,8.00
2022-09-30T07:14:06.523Z,9.20
2022-09-30T07:16:35.813Z,8.87
2022-09-30T07:19:03.673Z,8.47
2022-09-30T07:21:31.774Z,7.77
2022-09-30T07:24:00.110Z,8.57
2022-09-30T07:26:28.315Z,8.57
2022-09-30T07:28:55.888Z,7.57
2022-09-30T07:31:33.119Z,8.23
2022-09-30T07:34:03.398Z,8.63
2022-09-30T07:36:33.509Z,9.90
2022-09-30T07:39:05.482Z,9.63
2022-09-30T07:41:35.690Z,9.10
2022-09-30T07:44:03.323Z,8.50
2022-09-30T07:46:33.248Z,8.33
2022-09-30T07:49:03.946Z,8.50
2022-09-30T07:51:35.797Z,9.00
2022-09-30T07:54:05.944Z,8.40
2022-09-30T07:56:57.836Z,8.40
2022-09-30T07:59:22.506Z,9.37
2022-09-30T08:01:50.799Z,8.53
2022-09-30T08:04:19.658Z,9.70
2022-09-30T08:06:50.524Z,9.50
2022-09-30T08:09:20.167Z,9.10
2022-09-30T08:11:47.980Z,10.17
2022-09-30T08:14:17.240Z,11.70
2022-09-30T08:16:45.288Z,8.90
2022-09-30T08:19:15.861Z,9.10
2022-09-30T08:21:43.965Z,11.03
2022-09-30T08:24:13.412Z,10.07
2022-09-30T08:26:41.314Z,9.97
2022-09-30T08:29:12.353Z,11.40
2022-09-30T08:31:42.309Z,10.20
2022-09-30T08:34:10.154Z,10.93
2022-09-30T08:36:37.660Z,9.13
2022-09-30T08:39:05.870Z,9.43
2022-09-30T08:41:45.286Z,9.50
2022-09-30T08:44:25.469Z,8.90
2022-09-30T08:46:58.473Z,8.60
2022-09-30T08:49:38.496Z,8.43
2022-09-30T08:52:15.999Z,7.23
2022-09-30T08:54:53.892Z,8.83
2022-09-30T08:57:23.349Z,6.60
2022-09-30T08:59:53.960Z,6.40
2022-09-30T09:02:24.311Z,7.40
2022-09-30T09:04:52.719Z,6.63
2022-09-30T09:07:36.893Z,6.83
2022-09-30T09:10:15.245Z,5.90
2022-09-30T09:12:49.489Z,6.30
2022-09-30T09:15:31.810Z,5.60
2022-09-30T09:18:31.504Z,5.80
2022-09-30T09:21:00.721Z,6.17
2022-09-30T09:23:29.109Z,5.30
2022-09-30T09:25:56.636Z,4.90
2022-09-30T09:28:30.742Z,4.20
2022-09-30T09:30:59.911Z,5.30
2022-09-30T09:33:30.519Z,5.93
2022-09-30T09:36:08.656Z,5.33
2022-09-30T09:38:41.675Z,6.40
2022-09-30T09:41:18.402Z,5.00
2022-09-30T09:43:53.790Z,5.33
2022-09-30T09:46:26.203Z,4.97
2022-09-30T09:49:30.920Z,5.60
2022-09-30T09:52:12.357Z,6.20
2022-09-30T09:54:42.176Z,4.73
2022-09-30T09:57:10.814Z,4.90
2022-09-30T09:59:56.143Z,5.20
2022-09-30T10:02:25.049Z,4.70
2022-09-30T10:04:59.880Z,4.20
2022-09-30T10:07:29.927Z,4.67
2022-09-30T10:10:09.160Z,4.63
2022-09-30T10:12:36.820Z,4.50
2022-09-30T10:15:19.193Z,4.33
2022-09-30T10:17:51.907Z,4.27
2022-09-30T10:20:25.044Z,4.10
2022-09-30T10:23:02.018Z,4.90
2022-09-30T10:25:30.872Z,3.37
2022-09-30T10:28:00.130Z,3.50
2022-09-30T10:30:41.986Z,4.23
2022-09-30T10:33:20.336Z,3.80
2022-09-30T10:36:02.584Z,4.00
2022-09-30T10:38:32.047Z,3.90
2022-09-30T10:41:00.161Z,3.87
2022-09-30T10:43:31.461Z,3.60
2022-09-30T10:46:24.573Z,3.07
2022-09-30T10:48:53.760Z,3.40
2022-09-30T10:51:25.925Z,3.40
2022-09-30T10:53:53.695Z,3.50
2022-09-30T10:56:42.142Z,3.03
2022-09-30T10:59:19.739Z,3.67
2022-09-30T11:01:53.697Z,4.03
2022-09-30T11:04:28.423Z,3.93
2022-09-30T11:07:02.198Z,3.10
2022-09-30T11:09:35.717Z,2.90
2022-09-30T11:12:10.220Z,3.07
2022-09-30T11:14:41.719Z,3.53
2022-09-30T11:17:23.615Z,4.27
2022-09-30T11:19:55.286Z,2.57
2022-09-30T11:22:31.179Z,3.20
2022-09-30T11:24:58.856Z,3.13
2022-09-30T11:27:35.612Z,3.73
2022-09-30T11:30:08.839Z,2.87
2022-09-30T11:32:50.413Z,2.17
2022-09-30T11:35:29.543Z,2.00
2022-09-30T11:38:17.457Z,2.57
2022-09-30T11:40:50.644Z,1.97
2022-09-30T11:43:26.347Z,1.63
2022-09-30T11:46:19.302Z,1.87
2022-09-30T11:48:58.248Z,1.87
2022-09-30T11:51:32.694Z,2.00
2022-09-30T11:54:12.270Z,1.90
2022-09-30T11:56:45.653Z,1.70
2022-09-30T11:59:16.726Z,1.60
2022-09-30T12:01:47.282Z,1.57
2022-09-30T12:04:19.397Z,1.47
2022-09-30T12:06:52.634Z,1.67
2022-09-30T12:09:24.630Z,1.53
2022-09-30T12:11:57.178Z,1.57
2022-09-30T12:14:30.626Z,1.60
2022-09-30T12:16:59.791Z,3.20
2022-09-30T12:19:32.290Z,1.60
2022-09-30T12:22:05.557Z,1.77
2022-09-30T12:24:37.208Z,1.20
2022-09-30T12:27:05.411Z,1.30
2022-09-30T12:29:53.865Z,1.40
2022-09-30T12:32:43.524Z,1.57
2022-09-30T12:35:29.396Z,1.37
2022-09-30T12:38:11.609Z,1.70
2022-09-30T12:40:58.384Z,1.80
2022-09-30T12:43:48.214Z,1.17
2022-09-30T12:46:18.135Z,1.23
2022-09-30T12:48:47.938Z,1.30
2022-09-30T12:51:27.208Z,1.70
2022-09-30T12:54:00.439Z,1.83
2022-09-30T12:56:30.372Z,1.60
2022-09-30T12:59:01.330Z,1.47
2022-09-30T13:01:30.277Z,1.47
2022-09-30T13:04:18.656Z,1.30
2022-09-30T13:07:14.912Z,1.70
2022-09-30T13:09:58.780Z,1.50
2022-09-30T13:12:28.300Z,1.70
2022-09-30T13:15:27.916Z,1.30
2022-09-30T13:17:55.556Z,1.90
2022-09-30T13:20:50.622Z,1.20
2022-09-30T13:23:37.861Z,1.10
2022-09-30T13:26:07.109Z,1.70
2022-09-30T13:28:39.095Z,1.73
2022-09-30T13:31:15.553Z,1.07
2022-09-30T13:33:48.299Z,1.17
2022-09-30T13:36:20.321Z,0.90
2022-09-30T13:39:07.690Z,1.20
2022-09-30T13:41:37.496Z,0.80
2022-09-30T13:44:10.082Z,1.30
2022-09-30T13:46:43.248Z,1.03
2022-09-30T13:49:14.947Z,1.30
2022-09-30T13:51:42.657Z,0.80
2022-09-30T13:54:15.547Z,1.30
2022-09-30T13:56:44.079Z,1.37
2022-09-30T13:59:21.764Z,1.03
2022-09-30T14:02:04.920Z,0.93
2022-09-30T14:04:47.319Z,1.00
2022-09-30T14:07:18.902Z,0.83
2022-09-30T14:09:58.996Z,1.00
2022-09-30T14:12:37.309Z,1.10
2022-09-30T14:15:25.716Z,1.30
2022-09-30T14:18:07.480Z,1.13
2022-09-30T14:20:43.859Z,1.00
2022-09-30T14:23:15.458Z,1.87
2022-09-30T14:25:52.305Z,1.40
2022-09-30T14:28:24.669Z,1.27
2022-09-30T14:31:10.077Z,1.60
2022-09-30T14:33:39.518Z,1.10
2022-09-30T14:36:13.781Z,1.23
2022-09-30T14:38:44.471Z,0.90
2022-09-30T14:41:18.314Z,0.90
2022-09-30T14:43:47.125Z,1.00
2022-09-30T14:46:24.952Z,1.23
2022-09-30T14:48:52.980Z,1.23
2022-09-30T14:51:23.683Z,1.00
2022-09-30T14:53:56.075Z,0.80
2022-09-30T14:56:30.571Z,1.20
2022-09-30T14:58:59.696Z,1.30
2022-09-30T15:01:30.786Z,1.30
2022-09-30T15:04:00.833Z,1.30
2022-09-30T15:06:30.498Z,1.03
2022-09-30T15:09:03.271Z,0.80
2022-09-30T15:11:37.203Z,0.70
2022-09-30T15:14:09.915Z,0.87
2022-09-30T15:16:46.947Z,1.30
2022-09-30T15:19:19.314Z,0.87
2022-09-30T15:21:49.030Z,1.33
2022-09-30T15:24:18.232Z,0.90
2022-09-30T15:26:49.096Z,0.80
2022-09-30T15:29:17.666Z,1.17
2022-09-30T15:31:47.143Z,1.10
2022-09-30T15:34:20.469Z,1.10
2022-09-30T15:37:04.481Z,0.90
2022-09-30T15:39:47.556Z,1.30
2022-09-30T15:42:30.234Z,0.80
2022-09-30T15:44:59.533Z,1.10
2022-09-30T15:47:27.649Z,1.07
2022-09-30T15:49:55.428Z,0.90
2022-09-30T15:52:33.405Z,1.50
2022-09-30T15:55:01.084Z,0.93
2022-09-30T15:57:47.757Z,1.30
2022-09-30T16:00:38.311Z,1.20
2022-09-30T16:03:32.973Z,1.00
2022-09-30T16:06:08.682Z,1.63
2022-09-30T16:08:42.881Z,2.00
2022-09-30T16:11:10.645Z,2.00
2022-09-30T16:13:43.569Z,2.10
2022-09-30T16:16:19.621Z,1.40
2022-09-30T16:18:47.402Z,1.10
2022-09-30T16:21:30.440Z,1.13
2022-09-30T16:23:58.072Z,1.27
2022-09-30T16:26:30.761Z,1.10
2022-09-30T16:29:05.838Z,1.43
2022-09-30T16:31:36.074Z,1.20
2022-09-30T16:34:03.768Z,1.37
2022-09-30T16:36:31.787Z,1.13
2022-09-30T16:38:59.614Z,1.30
2022-09-30T16:41:27.225Z,1.50
2022-09-30T16:43:54.782Z,1.47
2022-09-30T16:46:23.797Z,1.50
2022-09-30T16:48:51.347Z,1.13
2022-09-30T16:51:19.079Z,1.10
2022-09-30T16:53:47.841Z,1.40
2022-09-30T16:56:17.118Z,1.17
2022-09-30T16:58:45.149Z,1.33
2022-09-30T17:01:18.315Z,1.23
2022-09-30T17:03:47.485Z,1.40
2022-09-30T17:06:15.171Z,1.57
2022-09-30T17:08:42.745Z,1.80
2022-09-30T17:11:10.999Z,1.60
2022-09-30T17:13:38.654Z,2.27
2022-09-30T17:16:06.668Z,2.00
2022-09-30T17:18:34.412Z,2.20
2022-09-30T17:21:03.433Z,1.83
2022-09-30T17:23:31.012Z,2.57
2022-09-30T17:25:58.643Z,3.60
2022-09-30T17:28:26.493Z,3.63
2022-09-30T17:30:54.747Z,3.33
2022-09-30T17:33:22.529Z,2.57
2022-09-30T17:36:00.160Z,2.63
2022-09-30T17:38:29.868Z,1.60
2022-09-30T17:41:15.150Z,1.70
2022-09-30T17:43:42.789Z,1.20
2022-09-30T17:46:10.415Z,1.10
2022-09-30T17:48:39.345Z,1.63
2022-09-30T17:51:09.522Z,1.23
2022-09-30T17:53:39.746Z,1.30
2022-09-30T17:56:10.165Z,1.70
2022-09-30T17:58:38.128Z,1.53
2022-09-30T18:01:07.793Z,1.43
2022-09-30T18:03:35.716Z,1.33
2022-09-30T18:06:03.484Z,1.77
2022-09-30T18:08:31.125Z,1.10
2022-09-30T18:11:00.015Z,1.30
2022-09-30T18:13:28.518Z,1.50
2022-09-30T18:15:59.568Z,1.20
2022-09-30T18:18:27.263Z,1.57
2022-09-30T18:20:54.825Z,1.40
2022-09-30T18:23:22.456Z,1.23
2022-09-30T18:25:54.309Z,2.00
2022-09-30T18:28:23.426Z,1.87
2022-09-30T18:30:51.055Z,2.00
2022-09-30T18:33:21.340Z,1.63
2022-09-30T18:35:51.437Z,1.50
2022-09-30T18:38:19.556Z,1.27
2022-09-30T18:40:47.143Z,2.03
2022-09-30T18:43:15.169Z,1.70
2022-09-30T18:45:44.257Z,1.87
2022-09-30T18:48:11.982Z,2.60
2022-09-30T18:50:39.638Z,2.30
2022-09-30T18:53:09.934Z,1.53
2022-09-30T18:55:38.254Z,1.67
2022-09-30T18:58:06.343Z,1.80
2022-09-30T19:00:34.094Z,3.00
2022-09-30T19:03:03.111Z,3.30
2022-09-30T19:05:30.790Z,3.13
2022-09-30T19:07:59.304Z,3.20
2022-09-30T19:10:26.850Z,2.73
2022-09-30T19:12:54.452Z,2.63
2022-09-30T19:15:23.471Z,2.97
2022-09-30T19:17:53.648Z,2.67
2022-09-30T19:20:22.981Z,2.60
2022-09-30T19:22:51.881Z,2.20
2022-09-30T19:25:19.614Z,3.17
2022-09-30T19:27:49.422Z,3.67
2022-09-30T19:30:17.065Z,2.80
2022-09-30T19:32:44.688Z,2.30
2022-09-30T19:35:13.569Z,2.33
2022-09-30T19:37:55.623Z,2.07
2022-09-30T19:40:25.290Z,2.60
2022-09-30T19:42:52.888Z,2.53
2022-09-30T19:45:25.921Z,2.57
2022-09-30T19:47:53.952Z,2.80
2022-09-30T19:50:21.550Z,3.13
2022-09-30T19:52:56.766Z,3.23
2022-09-30T19:55:25.580Z,3.70
2022-09-30T19:57:53.239Z,3.97
2022-09-30T20:00:20.820Z,4.40
2022-09-30T20:02:48.527Z,4.50
2022-09-30T20:05:18.261Z,4.00
2022-09-30T20:07:45.808Z,5.77
2022-09-30T20:10:14.819Z,5.00
2022-09-30T20:12:43.506Z,6.03
2022-09-30T20:15:29.333Z,5.87
2022-09-30T20:17:56.996Z,5.77
2022-09-30T20:20:37.080Z,4.93
2022-09-30T20:23:04.871Z,3.70
2022-09-30T20:25:35.125Z,3.73
2022-09-30T20:28:03.979Z,3.83
2022-09-30T20:30:32.007Z,3.20
2022-09-30T20:32:59.814Z,4.10
2022-09-30T20:35:27.459Z,3.37
2022-09-30T20:37:55.072Z,3.87
2022-09-30T20:40:23.177Z,4.60
2022-09-30T20:42:52.725Z,5.17
2022-09-30T20:45:20.348Z,5.13
2022-09-30T20:47:47.983Z,4.00
2022-09-30T20:50:34.742Z,2.83
2022-09-30T20:53:03.841Z,2.50
2022-09-30T20:55:31.463Z,2.70
2022-09-30T20:58:00.426Z,2.50
2022-09-30T21:00:28.224Z,3.20
2022-09-30T21:02:57.182Z,3.17
2022-09-30T21:05:24.822Z,3.60
2022-09-30T21:07:53.158Z,3.40
2022-09-30T21:10:21.307Z,3.67
2022-09-30T21:12:49.847Z,3.20
2022-09-30T21:15:19.089Z,3.37
2022-09-30T21:17:46.799Z,3.87
2022-09-30T21:20:14.569Z,3.40
2022-09-30T21:22:42.870Z,3.70
2022-09-30T21:25:13.009Z,4.37
2022-09-30T21:27:41.056Z,3.33
2022-09-30T21:30:10.855Z,3.80
2022-09-30T21:32:42.943Z,4.37
2022-09-30T21:35:10.801Z,3.40
2022-09-30T21:37:38.713Z,4.33
2022-09-30T21:40:07.112Z,3.43
2022-09-30T21:42:53.747Z,3.73
2022-09-30T21:45:34.569Z,3.90
2022-09-30T21:48:34.503Z,3.43
2022-09-30T21:51:07.805Z,3.90
2022-09-30T21:53:46.950Z,3.13
2022-09-30T21:56:14.720Z,3.57
2022-09-30T21:58:42.358Z,3.23
2022-09-30T22:01:11.166Z,4.00
2022-09-30T22:03:40.173Z,4.40
2022-09-30T22:06:09.156Z,4.13
2022-09-30T22:08:39.945Z,4.00
2022-09-30T22:11:13.474Z,4.00
2022-09-30T22:13:43.677Z,3.60
2022-09-30T22:16:11.527Z,3.27
2022-09-30T22:18:40.513Z,3.10
2022-09-30T22:21:10.638Z,4.10
2022-09-30T22:23:38.427Z,4.93
2022-09-30T22:26:11.101Z,3.83
2022-09-30T22:28:41.616Z,3.50
2022-09-30T22:31:13.777Z,3.60
2022-09-30T22:34:00.632Z,3.60
2022-09-30T22:36:47.993Z,4.10
2022-09-30T22:39:15.610Z,3.90
2022-09-30T22:41:43.387Z,4.20
2022-09-30T22:44:11.054Z,4.00
2022-09-30T22:46:39.389Z,4.00
2022-09-30T22:49:08.336Z,3.73
2022-09-30T22:51:36.362Z,4.33
2022-09-30T22:54:20.206Z,3.73
2022-09-30T22:56:50.352Z,4.20
2022-09-30T22:59:18.690Z,4.43
2022-09-30T23:01:46.763Z,4.90
2022-09-30T23:04:26.545Z,4.77
2022-09-30T23:06:55.699Z,5.77
2022-09-30T23:09:23.615Z,5.53
2022-09-30T23:11:53.567Z,4.80
2022-09-30T23:14:21.446Z,4.73
2022-09-30T23:16:49.500Z,5.83
2022-09-30T23:19:18.473Z,5.73
2022-09-30T23:21:45.994Z,4.90
2022-09-30T23:24:13.515Z,4.83
2022-09-30T23:26:41.201Z,5.23
2022-09-30T23:29:12.084Z,5.07
2022-09-30T23:31:39.907Z,4.70
2022-09-30T23:34:07.657Z,4.63
2022-09-30T23:36:37.764Z,4.43
2022-09-30T23:39:08.130Z,5.60
2022-09-30T23:41:36.028Z,4.37
2022-09-30T23:44:04.388Z,5.20
2022-09-30T23:46:32.003Z,5.20
2022-09-30T23:48:59.781Z,5.43
2022-09-30T23:51:27.290Z,4.60
2022-09-30T23:53:56.173Z,5.67
2022-09-30T23:56:23.942Z,5.03
2022-09-30T23:58:51.467Z,4.57
